Time;durP1;ratioP1;P1;durP2;ratioP2;P2;SDS_P1;SDS_P2;PMS_P1;PMS_P2;Temp;Humidity;BMP_temperature;BMP_pressure;BME280_temperature;BME280_humidity;BME280_pressure;Samples;Min_cycle;Max_cycle;Signal;HPM_P1;HPM_P2
2022/09/27 00:00:38;;;;;;;0.82;0.80;;;9.80;99.90;;;;;;5051556;28;20202;-69
2022/09/27 00:03:06;;;;;;;1.02;0.90;;;9.80;99.90;;;;;;5051107;28;20221;-69
2022/09/27 00:05:32;;;;;;;1.10;0.98;;;9.80;99.90;;;;;;5051073;28;20201;-69
2022/09/27 00:07:59;;;;;;;2.28;1.20;;;9.70;99.90;;;;;;5051479;28;20702;-69
2022/09/27 00:10:26;;;;;;;1.30;1.00;;;9.70;99.90;;;;;;5050912;28;20229;-69
2022/09/27 00:12:53;;;;;;;1.20;1.05;;;9.70;99.90;;;;;;5050785;28;20583;-69
2022/09/27 00:15:20;;;;;;;1.33;1.02;;;9.70;99.90;;;;;;5051344;28;20205;-69
2022/09/27 00:17:50;;;;;;;1.83;1.17;;;9.70;99.90;;;;;;5051221;28;20208;-69
2022/09/27 00:20:20;;;;;;;1.20;1.10;;;9.70;99.90;;;;;;5051206;28;20248;-69
2022/09/27 00:22:47;;;;;;;1.40;1.00;;;9.60;99.90;;;;;;5050208;28;20229;-69
2022/09/27 00:25:14;;;;;;;2.30;2.20;;;9.60;99.90;;;;;;5051216;28;20200;-69
2022/09/27 00:27:40;;;;;;;0.90;0.70;;;9.70;99.90;;;;;;5050686;28;20228;-69
2022/09/27 00:30:08;;;;;;;1.17;1.00;;;9.70;99.90;;;;;;5051029;28;20231;-69
2022/09/27 00:32:34;;;;;;;1.00;0.80;;;9.70;99.90;;;;;;5049619;28;20668;-69
2022/09/27 00:35:01;;;;;;;0.88;0.70;;;9.70;99.90;;;;;;5050607;28;20837;-69
2022/09/27 00:37:29;;;;;;;1.00;0.90;;;9.70;99.90;;;;;;5051060;28;20204;-69
2022/09/27 00:39:56;;;;;;;1.15;1.00;;;9.70;99.90;;;;;;5050503;28;20208;-69
2022/09/27 00:42:22;;;;;;;1.00;0.90;;;9.70;99.90;;;;;;5050277;28;20211;-69
2022/09/27 00:45:13;;;;;;;1.27;1.08;;;9.80;99.90;;;;;;5050486;28;20240;-69
2022/09/27 00:47:49;;;;;;;1.45;1.25;;;9.80;99.90;;;;;;5050754;28;20205;-69
2022/09/27 00:50:29;;;;;;;1.45;1.00;;;9.80;99.90;;;;;;5050540;28;20228;-69
2022/09/27 00:53:08;;;;;;;1.00;0.90;;;9.80;99.90;;;;;;5050040;28;20220;-69
2022/09/27 00:55:39;;;;;;;1.20;0.90;;;9.90;99.90;;;;;;5050869;28;20235;-69
2022/09/27 00:58:07;;;;;;;0.90;0.80;;;9.80;99.90;;;;;;5050528;28;20696;-69
2022/09/27 01:00:34;;;;;;;3.22;0.85;;;9.80;99.90;;;;;;5050526;28;20672;-69
2022/09/27 01:03:05;;;;;;;3.60;1.00;;;9.80;99.90;;;;;;5049441;28;20221;-69
2022/09/27 01:05:32;;;;;;;1.10;0.85;;;9.80;99.90;;;;;;5050373;28;20291;-69
2022/09/27 01:08:00;;;;;;;0.90;0.80;;;9.80;99.90;;;;;;5050191;28;20220;-69
2022/09/27 01:10:31;;;;;;;1.55;1.05;;;9.90;99.90;;;;;;5050561;28;20221;-69
2022/09/27 01:13:06;;;;;;;1.75;1.00;;;9.90;99.90;;;;;;5049862;28;20588;-69
2022/09/27 01:15:42;;;;;;;0.80;0.73;;;9.80;99.90;;;;;;5050309;28;20220;-69
2022/09/27 01:18:28;;;;;;;1.05;0.95;;;9.80;99.90;;;;;;5050503;28;20209;-69
2022/09/27 01:21:15;;;;;;;1.02;0.88;;;9.70;99.90;;;;;;5050124;28;20293;-69
2022/09/27 01:24:15;;;;;;;0.98;0.82;;;9.70;99.90;;;;;;5050505;28;20248;-69
2022/09/27 01:27:04;;;;;;;1.80;0.93;;;9.70;99.90;;;;;;5050071;28;20201;-69
2022/09/27 01:29:44;;;;;;;0.90;0.80;;;9.70;99.90;;;;;;5050399;28;20734;-69
2022/09/27 01:32:17;;;;;;;1.25;1.02;;;9.70;99.90;;;;;;5049718;28;20243;-69
2022/09/27 01:34:48;;;;;;;1.00;0.90;;;9.70;99.90;;;;;;5050302;28;20643;-69
2022/09/27 01:37:36;;;;;;;1.10;0.90;;;9.60;99.90;;;;;;5050049;28;20621;-69
2022/09/27 01:40:12;;;;;;;0.90;0.80;;;9.50;99.90;;;;;;5050203;28;20279;-69
2022/09/27 01:42:45;;;;;;;1.00;0.80;;;9.50;99.90;;;;;;5049339;28;20299;-69
2022/09/27 01:45:18;;;;;;;1.10;1.00;;;9.50;99.90;;;;;;5050306;28;20201;-69
2022/09/27 01:47:49;;;;;;;0.80;0.80;;;9.60;99.90;;;;;;5050044;28;20272;-69
2022/09/27 01:50:21;;;;;;;1.25;1.05;;;9.60;99.90;;;;;;5049912;28;20228;-69
2022/09/27 01:52:51;;;;;;;1.50;1.00;;;9.70;99.90;;;;;;5049396;28;20583;-69
2022/09/27 01:55:21;;;;;;;2.65;0.98;;;9.80;99.90;;;;;;5049779;28;20209;-69
2022/09/27 01:57:55;;;;;;;0.95;0.85;;;9.80;99.90;;;;;;5050040;28;20197;-69
2022/09/27 02:00:22;;;;;;;1.65;0.90;;;9.90;99.90;;;;;;5049930;28;20531;-69
2022/09/27 02:02:55;;;;;;;1.45;0.98;;;9.80;99.90;;;;;;5049245;28;20209;-69
2022/09/27 02:05:26;;;;;;;1.10;0.88;;;9.90;99.90;;;;;;5049802;28;20202;-69
2022/09/27 02:07:57;;;;;;;1.20;0.88;;;9.90;99.90;;;;;;5049862;28;20256;-69
2022/09/27 02:10:28;;;;;;;1.27;1.00;;;9.90;99.90;;;;;;5049746;28;20229;-69
2022/09/27 02:13:01;;;;;;;1.10;0.98;;;9.90;99.90;;;;;;5048819;28;20205;-69
2022/09/27 02:15:30;;;;;;;1.35;0.75;;;10.00;99.90;;;;;;5050170;28;20209;-69
2022/09/27 02:18:02;;;;;;;0.85;0.80;;;9.90;99.90;;;;;;5051225;28;20212;-69
2022/09/27 02:20:33;;;;;;;1.58;1.00;;;10.00;99.90;;;;;;5053645;28;20221;-69
2022/09/27 02:23:10;;;;;;;1.15;0.80;;;10.00;99.90;;;;;;5052512;28;20240;-69
2022/09/27 02:25:43;;;;;;;1.73;1.10;;;10.00;99.90;;;;;;5053483;28;20205;-69
2022/09/27 02:28:19;;;;;;;1.15;0.85;;;10.00;99.90;;;;;;5053413;28;20206;-69
2022/09/27 02:30:46;;;;;;;1.10;0.90;;;10.00;99.90;;;;;;5052998;28;20224;-69
2022/09/27 02:33:14;;;;;;;1.13;0.80;;;10.00;99.90;;;;;;5053041;28;20229;-69
2022/09/27 02:35:41;;;;;;;1.10;0.90;;;10.00;99.90;;;;;;5053080;28;20270;-69
2022/09/27 02:38:08;;;;;;;1.38;1.02;;;10.00;99.90;;;;;;5053342;28;20214;-69
2022/09/27 02:40:41;;;;;;;0.77;0.68;;;10.00;99.90;;;;;;5053038;28;20278;-69
2022/09/27 02:43:09;;;;;;;1.10;0.93;;;9.90;99.90;;;;;;5052774;28;20240;-69
2022/09/27 02:45:50;;;;;;;1.02;0.93;;;9.90;99.90;;;;;;5053231;28;20677;-69
2022/09/27 02:48:24;;;;;;;1.00;0.80;;;9.90;99.90;;;;;;5052684;28;20206;-69
2022/09/27 02:51:04;;;;;;;1.45;0.90;;;9.90;99.90;;;;;;5052845;28;20221;-69
2022/09/27 02:53:47;;;;;;;0.80;0.70;;;9.80;99.90;;;;;;5052230;28;20228;-69
2022/09/27 02:56:22;;;;;;;0.90;0.70;;;9.80;99.90;;;;;;5053052;28;20614;-69
2022/09/27 02:59:01;;;;;;;1.92;0.75;;;9.70;99.90;;;;;;5052590;28;20227;-70
2022/09/27 03:01:37;;;;;;;0.70;0.70;;;9.70;99.90;;;;;;5052393;28;20202;-69
2022/09/27 03:04:12;;;;;;;0.80;0.70;;;9.70;99.90;;;;;;5052471;28;20225;-69
2022/09/27 03:06:43;;;;;;;1.10;0.75;;;9.60;99.90;;;;;;5052947;28;20615;-69
2022/09/27 03:09:17;;;;;;;0.85;0.70;;;9.50;99.90;;;;;;5052490;28;20198;-69
2022/09/27 03:11:44;;;;;;;0.80;0.70;;;9.50;99.90;;;;;;5051892;28;20220;-69
2022/09/27 03:14:11;;;;;;;0.90;0.80;;;9.50;99.90;;;;;;5052600;28;20295;-69
2022/09/27 03:16:37;;;;;;;0.80;0.70;;;9.40;99.90;;;;;;5052190;28;20212;-69
2022/09/27 03:19:05;;;;;;;0.80;0.70;;;9.40;99.90;;;;;;5052630;28;20202;-69
2022/09/27 03:21:32;;;;;;;1.23;0.85;;;9.40;99.90;;;;;;5051809;28;20209;-69
2022/09/27 03:23:59;;;;;;;1.20;0.90;;;9.30;99.90;;;;;;5051870;28;20244;-69
2022/09/27 03:26:26;;;;;;;2.30;0.95;;;9.30;99.90;;;;;;5052440;28;20202;-69
2022/09/27 03:28:53;;;;;;;1.20;0.95;;;9.30;99.90;;;;;;5051706;28;20215;-70
2022/09/27 03:31:20;;;;;;;1.45;0.90;;;9.30;99.90;;;;;;5047804;28;20223;-69
2022/09/27 03:33:47;;;;;;;0.90;0.80;;;9.30;99.90;;;;;;5030433;28;20751;-70
2022/09/27 03:36:15;;;;;;;0.80;0.70;;;9.30;99.90;;;;;;5039941;28;20193;-70
2022/09/27 03:38:42;;;;;;;1.00;0.80;;;9.30;99.90;;;;;;5036962;28;20200;-70
2022/09/27 03:41:08;;;;;;;1.10;0.90;;;9.20;99.90;;;;;;5051043;28;20237;-69
2022/09/27 03:43:35;;;;;;;1.52;1.20;;;9.20;99.90;;;;;;5050667;28;20221;-70
2022/09/27 03:46:02;;;;;;;1.00;0.77;;;9.20;99.90;;;;;;5051511;28;20297;-70
2022/09/27 03:48:29;;;;;;;0.80;0.70;;;9.30;99.90;;;;;;5051947;28;20208;-69
2022/09/27 03:50:56;;;;;;;1.00;0.90;;;9.30;99.90;;;;;;5051607;28;20282;-69
2022/09/27 03:53:24;;;;;;;1.20;1.10;;;9.20;99.90;;;;;;5051100;28;20221;-70
2022/09/27 03:55:51;;;;;;;0.88;0.88;;;9.20;99.90;;;;;;5051660;28;20675;-70
2022/09/27 03:58:18;;;;;;;1.05;0.85;;;9.20;99.90;;;;;;5051635;28;20224;-70
2022/09/27 04:00:46;;;;;;;6.05;1.00;;;9.30;99.90;;;;;;5050923;28;20237;-69
2022/09/27 04:03:12;;;;;;;1.60;1.02;;;9.20;99.90;;;;;;5050527;28;20209;-70
2022/09/27 04:05:39;;;;;;;1.10;1.00;;;9.20;99.90;;;;;;5051376;28;20676;-70
2022/09/27 04:08:06;;;;;;;2.45;0.82;;;9.20;99.90;;;;;;5051185;28;20213;-70
2022/09/27 04:10:35;;;;;;;1.92;1.48;;;9.20;99.90;;;;;;5051155;28;20220;-69
2022/09/27 04:13:02;;;;;;;2.90;1.42;;;9.20;99.90;;;;;;5050040;28;20229;-69
2022/09/27 04:15:29;;;;;;;1.10;1.00;;;9.20;99.90;;;;;;5051240;28;20214;-69
2022/09/27 04:17:55;;;;;;;2.60;1.20;;;9.30;99.90;;;;;;5050631;28;20197;-70
2022/09/27 04:20:22;;;;;;;1.80;1.38;;;9.30;99.90;;;;;;5051147;28;20753;-70
2022/09/27 04:22:50;;;;;;;1.42;1.08;;;9.30;99.90;;;;;;5050588;28;20295;-70
2022/09/27 04:25:16;;;;;;;1.40;1.30;;;9.30;99.90;;;;;;5051424;28;20209;-71
2022/09/27 04:27:47;;;;;;;2.58;1.50;;;9.30;99.90;;;;;;5050925;28;20698;-69
2022/09/27 04:30:14;;;;;;;2.08;1.50;;;9.30;99.90;;;;;;5050555;28;20197;-69
2022/09/27 04:32:41;;;;;;;2.90;1.35;;;9.30;99.90;;;;;;5048206;28;20651;-71
2022/09/27 04:37:53;;;;;;;3.03;1.55;;;9.30;99.90;;;;;;5048332;28;20323;-69
2022/09/27 04:40:21;;;;;;;1.15;0.98;;;9.30;99.90;;;;;;5047958;28;20630;-68
2022/09/27 04:42:49;;;;;;;1.55;1.20;;;9.30;99.90;;;;;;5047703;28;20205;-67
2022/09/27 04:45:16;;;;;;;2.30;1.10;;;9.30;99.90;;;;;;5048226;28;20205;-68
2022/09/27 04:47:43;;;;;;;1.60;1.20;;;9.30;99.90;;;;;;5049267;28;20209;-68
2022/09/27 04:50:10;;;;;;;1.40;1.10;;;9.30;99.90;;;;;;5050684;28;20229;-68
2022/09/27 04:52:37;;;;;;;2.70;1.15;;;9.40;99.90;;;;;;5050338;28;20208;-69
2022/09/27 04:55:05;;;;;;;1.58;1.48;;;9.40;99.90;;;;;;5050592;28;20233;-70
2022/09/27 04:57:31;;;;;;;2.72;1.50;;;9.30;99.90;;;;;;5034543;28;20201;-69
2022/09/27 05:00:00;;;;;;;1.42;1.20;;;9.40;99.90;;;;;;5036068;28;20206;-70
2022/09/27 05:02:27;;;;;;;2.13;1.52;;;9.40;99.90;;;;;;5030245;28;20230;-70
2022/09/27 05:04:56;;;;;;;1.63;1.50;;;9.40;99.90;;;;;;5087871;22;20232;-96
2022/09/27 05:07:23;;;;;;;4.30;1.48;;;9.40;99.90;;;;;;5065354;22;20242;-69
2022/09/27 05:09:50;;;;;;;2.80;1.70;;;9.30;99.90;;;;;;5050581;28;20202;-69
2022/09/27 05:12:17;;;;;;;1.20;1.10;;;9.40;99.90;;;;;;5050171;28;20229;-68
2022/09/27 05:14:43;;;;;;;1.80;1.33;;;9.30;99.90;;;;;;5050422;28;20230;-68
2022/09/27 05:17:12;;;;;;;1.90;1.17;;;9.30;99.90;;;;;;5050547;28;20204;-68
2022/09/27 05:19:39;;;;;;;3.40;1.70;;;9.30;99.90;;;;;;5050424;28;20225;-67
2022/09/27 05:22:06;;;;;;;1.75;1.30;;;9.30;99.90;;;;;;5050115;28;20251;-68
2022/09/27 05:24:33;;;;;;;2.08;1.88;;;9.30;99.90;;;;;;5050504;28;20221;-68
2022/09/27 05:27:00;;;;;;;1.40;1.30;;;9.30;99.90;;;;;;5050407;28;20201;-71
2022/09/27 05:29:27;;;;;;;4.28;2.47;;;9.30;99.90;;;;;;5050629;28;20210;-67
2022/09/27 05:31:54;;;;;;;3.00;2.05;;;9.30;99.90;;;;;;5049665;28;20604;-67
2022/09/27 05:34:22;;;;;;;1.50;1.40;;;9.30;99.90;;;;;;5050320;28;20324;-68
2022/09/27 05:36:49;;;;;;;1.33;1.10;;;9.30;99.90;;;;;;5050129;28;20280;-68
2022/09/27 05:39:16;;;;;;;1.73;1.48;;;9.30;99.90;;;;;;5050193;28;20217;-69
2022/09/27 05:41:43;;;;;;;1.70;1.30;;;9.30;99.90;;;;;;5049998;28;20673;-69
2022/09/27 05:44:09;;;;;;;1.20;0.93;;;9.30;99.90;;;;;;5050303;28;20229;-69
2022/09/27 05:46:37;;;;;;;1.27;1.15;;;9.30;99.90;;;;;;5051193;28;20216;-70
2022/09/27 05:49:04;;;;;;;1.83;1.30;;;9.30;99.90;;;;;;5050446;28;20204;-69
2022/09/27 05:51:32;;;;;;;1.42;1.33;;;9.30;99.90;;;;;;5050100;28;20221;-70
2022/09/27 05:53:59;;;;;;;1.10;0.90;;;9.30;99.90;;;;;;5053447;28;20244;-70
2022/09/27 05:56:26;;;;;;;1.27;1.15;;;9.30;99.90;;;;;;5054234;28;20205;-70
2022/09/27 05:58:52;;;;;;;1.13;1.02;;;9.30;99.90;;;;;;5053914;28;20217;-69
2022/09/27 06:01:19;;;;;;;2.10;1.20;;;9.30;99.90;;;;;;5053256;28;20205;-69
2022/09/27 06:03:46;;;;;;;1.67;1.30;;;9.30;99.90;;;;;;5053832;28;20225;-69
2022/09/27 06:06:14;;;;;;;1.25;1.00;;;9.30;99.90;;;;;;5053722;28;20209;-69
2022/09/27 06:08:44;;;;;;;1.55;1.17;;;9.30;99.90;;;;;;5053994;28;20209;-69
2022/09/27 06:11:12;;;;;;;2.85;1.20;;;9.30;99.90;;;;;;5053391;28;20229;-69
2022/09/27 06:13:39;;;;;;;1.33;1.23;;;9.30;99.90;;;;;;5053581;28;20232;-69
2022/09/27 06:16:07;;;;;;;1.92;1.25;;;9.30;99.90;;;;;;5053784;28;20205;-69
2022/09/27 06:18:34;;;;;;;1.30;1.10;;;9.30;99.90;;;;;;5053731;28;20198;-68
2022/09/27 06:21:01;;;;;;;1.25;1.10;;;9.20;99.90;;;;;;5053554;28;20205;-68
2022/09/27 06:23:28;;;;;;;1.08;0.98;;;9.20;99.90;;;;;;5053266;28;20576;-68
2022/09/27 06:28:25;;;;;;;0.90;0.82;;;9.20;99.90;;;;;;5040021;22;20238;-68
2022/09/27 06:30:52;;;;;;;1.65;1.13;;;9.20;99.90;;;;;;5033244;28;20685;-68
2022/09/27 06:33:20;;;;;;;0.90;0.80;;;9.20;99.90;;;;;;5032810;28;20228;-68
2022/09/27 06:35:48;;;;;;;0.95;0.88;;;9.30;99.90;;;;;;5032335;28;20202;-70
2022/09/27 06:38:17;;;;;;;1.00;0.90;;;9.20;99.90;;;;;;5033446;28;20201;-70
2022/09/27 06:40:45;;;;;;;1.55;1.30;;;9.20;99.90;;;;;;5033390;28;20206;-71
2022/09/27 06:43:13;;;;;;;1.10;1.00;;;9.20;99.90;;;;;;5033290;28;20272;-71
2022/09/27 06:45:42;;;;;;;2.85;1.10;;;9.20;99.90;;;;;;5033749;28;20202;-70
2022/09/27 06:48:11;;;;;;;1.10;1.00;;;9.20;99.90;;;;;;5033093;28;20202;-70
2022/09/27 06:50:40;;;;;;;1.42;1.10;;;9.20;99.90;;;;;;5033693;28;20301;-70
2022/09/27 06:53:09;;;;;;;1.45;0.90;;;9.20;99.90;;;;;;5032602;28;20225;-70
2022/09/27 06:55:36;;;;;;;1.10;0.98;;;9.20;99.90;;;;;;5033239;28;20670;-71
2022/09/27 07:00:52;;;;;;;0.98;0.77;;;9.30;99.90;;;;;;5033371;28;20200;-69
2022/09/27 07:03:19;;;;;;;1.98;1.02;;;9.30;99.90;;;;;;5032160;28;20745;-69
2022/09/27 07:05:55;;;;;;;1.60;0.90;;;9.30;99.90;;;;;;5033288;28;20202;-68
2022/09/27 07:08:22;;;;;;;0.80;0.73;;;9.30;99.90;;;;;;5033039;28;20210;-68
2022/09/27 07:10:49;;;;;;;1.33;0.90;;;9.30;99.90;;;;;;5031354;28;20221;-68
2022/09/27 07:13:19;;;;;;;1.10;0.88;;;9.30;99.90;;;;;;5030162;28;20249;-69
2022/09/27 07:15:45;;;;;;;0.80;0.73;;;9.30;99.90;;;;;;5031113;28;20202;-69
2022/09/27 07:18:14;;;;;;;1.25;0.80;;;9.30;99.90;;;;;;5032059;28;20290;-69
2022/09/27 07:20:41;;;;;;;0.80;0.70;;;9.30;99.90;;;;;;5032467;28;20205;-69
2022/09/27 07:23:09;;;;;;;1.42;0.90;;;9.30;99.90;;;;;;5031143;28;20242;-69
2022/09/27 07:25:36;;;;;;;1.13;0.82;;;9.40;99.90;;;;;;5032382;28;20216;-70
2022/09/27 07:28:04;;;;;;;0.93;0.80;;;9.60;99.90;;;;;;5031261;28;20206;-69
2022/09/27 07:30:32;;;;;;;1.10;0.82;;;9.60;99.90;;;;;;5032462;28;20695;-68
2022/09/27 07:32:59;;;;;;;1.05;0.90;;;9.60;99.90;;;;;;5031939;28;20222;-69
2022/09/27 07:35:30;;;;;;;0.98;0.88;;;9.70;99.90;;;;;;5031415;28;20304;-69
2022/09/27 07:37:58;;;;;;;1.00;0.80;;;9.60;99.90;;;;;;5031388;28;20226;-69
2022/09/27 07:40:25;;;;;;;0.80;0.70;;;9.60;99.90;;;;;;5032272;28;20559;-69
2022/09/27 07:42:55;;;;;;;2.17;0.80;;;9.60;99.90;;;;;;5031710;28;20578;-69
2022/09/27 07:45:22;;;;;;;1.00;0.80;;;9.60;99.90;;;;;;5032034;28;20637;-70
2022/09/27 07:47:49;;;;;;;4.25;1.10;;;9.70;99.90;;;;;;5032191;28;20203;-70
2022/09/27 07:50:16;;;;;;;0.88;0.75;;;9.70;99.90;;;;;;5031800;28;20263;-68
2022/09/27 07:52:46;;;;;;;1.55;0.90;;;9.60;99.90;;;;;;5031592;28;20222;-70
2022/09/27 07:55:14;;;;;;;0.90;0.80;;;9.70;99.90;;;;;;5032049;28;20198;-69
2022/09/27 07:57:43;;;;;;;1.55;0.80;;;9.80;99.90;;;;;;5031708;28;20296;-70
2022/09/27 08:00:13;;;;;;;0.98;0.73;;;9.90;99.90;;;;;;5031856;28;20233;-68
2022/09/27 08:02:40;;;;;;;1.00;0.80;;;10.00;99.90;;;;;;5029515;28;20206;-70
2022/09/27 08:05:08;;;;;;;1.67;1.08;;;10.10;99.90;;;;;;5031107;28;20209;-69
2022/09/27 08:07:35;;;;;;;0.90;0.70;;;10.10;99.90;;;;;;5030529;28;20207;-70
2022/09/27 08:10:03;;;;;;;1.00;0.90;;;10.20;99.90;;;;;;5031095;28;20624;-69
2022/09/27 08:12:31;;;;;;;0.85;0.77;;;10.30;99.90;;;;;;5031634;28;20225;-69
2022/09/27 08:15:00;;;;;;;0.93;0.82;;;10.30;99.90;;;;;;5030899;28;20227;-69
2022/09/27 08:17:27;;;;;;;1.70;0.85;;;10.40;99.90;;;;;;5031376;28;20229;-69
2022/09/27 08:19:54;;;;;;;1.05;0.93;;;10.40;99.90;;;;;;5031256;28;20214;-68
2022/09/27 08:22:21;;;;;;;1.00;0.90;;;10.50;99.90;;;;;;5029052;28;20217;-70
2022/09/27 08:24:48;;;;;;;1.20;0.80;;;10.60;99.90;;;;;;5031238;28;20288;-70
2022/09/27 08:27:16;;;;;;;0.80;0.73;;;10.70;99.90;;;;;;5030619;28;20681;-70
2022/09/27 08:29:43;;;;;;;1.58;1.10;;;10.90;99.90;;;;;;5030744;28;20198;-71
2022/09/27 08:32:11;;;;;;;0.80;0.70;;;10.90;99.90;;;;;;5029301;28;20225;-71
2022/09/27 08:34:38;;;;;;;0.90;0.80;;;10.90;99.90;;;;;;5030910;28;20321;-71
2022/09/27 08:37:05;;;;;;;1.25;0.82;;;10.90;99.90;;;;;;5031557;28;20329;-71
2022/09/27 08:39:32;;;;;;;0.80;0.70;;;10.80;99.90;;;;;;5031339;28;20207;-71
2022/09/27 08:42:06;;;;;;;0.90;0.80;;;10.70;99.90;;;;;;5030577;28;20202;-70
2022/09/27 08:44:42;;;;;;;0.93;0.70;;;10.50;99.90;;;;;;5031430;28;20230;-67
2022/09/27 08:47:15;;;;;;;1.45;0.93;;;10.40;99.90;;;;;;5030422;28;20252;-70
2022/09/27 08:49:47;;;;;;;1.10;0.82;;;10.30;99.90;;;;;;5031186;28;20206;-70
2022/09/27 08:52:19;;;;;;;1.98;0.90;;;10.20;99.90;;;;;;5030549;28;20226;-70
2022/09/27 08:54:47;;;;;;;0.80;0.70;;;10.20;99.90;;;;;;5031113;28;20226;-70
2022/09/27 08:57:15;;;;;;;1.00;0.80;;;10.10;99.90;;;;;;5031002;28;20233;-68
2022/09/27 08:59:48;;;;;;;1.30;0.90;;;10.10;99.90;;;;;;5030100;28;20673;-68
2022/09/27 09:02:18;;;;;;;0.98;0.80;;;10.30;99.90;;;;;;5029986;28;20199;-68
2022/09/27 09:04:49;;;;;;;1.13;0.88;;;10.60;99.90;;;;;;5031079;28;20633;-68
2022/09/27 09:07:32;;;;;;;1.40;0.85;;;10.90;99.90;;;;;;5030718;28;20249;-68
2022/09/27 09:10:06;;;;;;;0.80;0.70;;;11.20;99.90;;;;;;5027961;28;20221;-68
2022/09/27 09:12:48;;;;;;;1.42;0.80;;;11.30;99.90;;;;;;5028684;28;20220;-68
2022/09/27 09:15:28;;;;;;;2.13;0.82;;;11.40;99.90;;;;;;5030949;28;20198;-71
2022/09/27 09:18:17;;;;;;;0.80;0.70;;;11.60;99.90;;;;;;5030315;28;20673;-71
2022/09/27 09:20:57;;;;;;;1.00;0.90;;;11.80;99.90;;;;;;5030847;28;20261;-70
2022/09/27 09:23:51;;;;;;;0.80;0.73;;;12.00;99.90;;;;;;5029733;28;20275;-70
2022/09/27 09:26:29;;;;;;;1.48;0.98;;;12.30;99.90;;;;;;5031129;28;20629;-70
2022/09/27 09:29:11;;;;;;;1.63;0.88;;;12.40;99.90;;;;;;5034778;28;20212;-70
2022/09/27 09:31:44;;;;;;;4.50;1.17;;;12.60;99.90;;;;;;5034127;28;20561;-71
2022/09/27 09:34:17;;;;;;;1.40;1.10;;;12.90;99.90;;;;;;5034485;28;20531;-70
2022/09/27 09:36:46;;;;;;;0.90;0.80;;;13.10;99.90;;;;;;5034315;28;20461;-70
2022/09/27 09:39:17;;;;;;;1.47;0.90;;;13.20;99.90;;;;;;5034211;28;20202;-71
2022/09/27 09:42:02;;;;;;;1.00;0.90;;;13.40;99.90;;;;;;5028855;28;20460;-70
2022/09/27 09:44:34;;;;;;;1.00;0.90;;;13.50;99.90;;;;;;5034119;28;20487;-70
2022/09/27 09:47:10;;;;;;;1.90;0.90;;;13.50;99.90;;;;;;5034073;28;20465;-68
2022/09/27 09:49:45;;;;;;;1.20;1.10;;;13.50;99.90;;;;;;5033796;28;20460;-69
2022/09/27 09:52:15;;;;;;;0.93;0.83;;;13.50;99.90;;;;;;5033594;28;20573;-69
2022/09/27 09:54:49;;;;;;;1.00;0.90;;;13.70;99.90;;;;;;5033960;28;20984;-67
2022/09/27 09:57:20;;;;;;;1.87;1.10;;;13.90;99.90;;;;;;5033646;28;20507;-68
2022/09/27 09:59:53;;;;;;;1.30;0.97;;;13.90;99.90;;;;;;5033297;28;20469;-70
2022/09/27 10:02:30;;;;;;;1.00;0.90;;;14.10;99.90;;;;;;5032431;28;20983;-69
2022/09/27 10:04:56;;;;;;;1.40;1.10;;;14.20;99.90;;;;;;5033778;28;21018;-68
2022/09/27 10:07:25;;;;;;;1.23;1.00;;;14.20;99.90;;;;;;5033503;28;20986;-68
2022/09/27 10:09:53;;;;;;;1.33;1.00;;;14.30;99.90;;;;;;5033692;28;20460;-68
2022/09/27 10:12:20;;;;;;;1.10;1.00;;;14.50;99.90;;;;;;5031853;28;21034;-68
2022/09/27 10:14:49;;;;;;;1.00;0.90;;;14.60;99.90;;;;;;5033579;28;20852;-68
2022/09/27 10:17:21;;;;;;;1.60;1.10;;;14.40;99.90;;;;;;5032805;28;20469;-68
2022/09/27 10:19:51;;;;;;;1.00;0.90;;;14.30;99.90;;;;;;5032983;28;20463;-68
2022/09/27 10:22:23;;;;;;;1.20;1.07;;;14.10;99.90;;;;;;5032570;28;20460;-68
2022/09/27 10:24:56;;;;;;;1.67;1.20;;;13.90;99.90;;;;;;5032776;28;20520;-68
2022/09/27 10:27:24;;;;;;;1.73;1.00;;;13.50;99.90;;;;;;5032857;28;20480;-68
2022/09/27 10:29:57;;;;;;;1.20;1.00;;;12.90;99.90;;;;;;5032967;28;20563;-68
2022/09/27 10:32:29;;;;;;;1.20;1.00;;;12.60;99.90;;;;;;5031814;28;20496;-68
2022/09/27 10:35:22;;;;;;;2.50;1.30;;;12.50;99.90;;;;;;5033031;28;20488;-68
2022/09/27 10:37:49;;;;;;;1.97;1.53;;;12.50;99.90;;;;;;5032085;28;20457;-68
2022/09/27 10:40:28;;;;;;;4.43;1.67;;;12.50;99.90;;;;;;5032490;28;20469;-68
2022/09/27 10:42:55;;;;;;;1.57;1.27;;;12.70;99.90;;;;;;5032077;28;20948;-68
2022/09/27 10:45:30;;;;;;;1.10;0.83;;;13.10;99.90;;;;;;5032687;28;20472;-68
2022/09/27 10:47:57;;;;;;;1.10;1.00;;;13.20;99.90;;;;;;5032384;28;20962;-68
2022/09/27 10:50:27;;;;;;;1.20;1.07;;;13.20;99.90;;;;;;5032183;28;20468;-69
2022/09/27 10:53:03;;;;;;;1.13;1.00;;;13.10;99.90;;;;;;5032140;28;21030;-68
2022/09/27 10:55:34;;;;;;;1.23;1.00;;;12.90;99.90;;;;;;5032118;28;20499;-68
2022/09/27 10:58:02;;;;;;;1.37;1.00;;;12.70;99.90;;;;;;5032536;28;20496;-69
2022/09/27 11:00:32;;;;;;;1.97;1.30;;;12.60;99.90;;;;;;5173592;22;20495;-66
2022/09/27 11:03:01;;;;;;;1.90;1.40;;;12.40;99.90;;;;;;5050790;28;20538;-67
2022/09/27 11:05:35;;;;;;;2.07;1.50;;;12.20;99.90;;;;;;5119141;22;20470;-96
2022/09/27 11:08:22;;;;;;;1.60;1.00;;;12.00;99.90;;;;;;5085006;22;20507;-69
2022/09/27 11:11:06;;;;;;;1.23;1.00;;;11.90;99.90;;;;;;5052269;28;20240;-69
2022/09/27 11:13:34;;;;;;;1.10;1.00;;;11.90;99.90;;;;;;5052031;28;20299;-68
2022/09/27 11:16:49;;;;;;;2.10;1.20;;;11.90;99.90;;;;;;5052518;28;20456;-69
2022/09/27 11:19:35;;;;;;;1.95;0.98;;;12.00;99.90;;;;;;5032104;28;20475;-69
2022/09/27 11:22:18;;;;;;;1.55;0.98;;;12.00;99.90;;;;;;5051934;28;20201;-69
2022/09/27 11:25:00;;;;;;;1.23;1.10;;;12.00;99.90;;;;;;5051519;28;20226;-68
2022/09/27 11:27:40;;;;;;;1.58;1.15;;;12.00;99.90;;;;;;5052273;28;20209;-68
2022/09/27 11:30:11;;;;;;;0.97;0.83;;;12.00;99.90;;;;;;5051801;28;20205;-68
2022/09/27 11:32:52;;;;;;;1.00;0.90;;;12.00;99.90;;;;;;5051166;28;20484;-68
2022/09/27 11:35:46;;;;;;;1.30;0.90;;;11.90;99.90;;;;;;5051828;28;20578;-68
2022/09/27 11:38:20;;;;;;;1.30;0.80;;;11.90;99.90;;;;;;5052076;28;20748;-68
2022/09/27 11:41:07;;;;;;;1.85;1.08;;;11.80;99.90;;;;;;5051642;28;20213;-68
2022/09/27 11:44:03;;;;;;;0.80;0.73;;;11.80;99.90;;;;;;5051271;28;20217;-68
2022/09/27 11:46:32;;;;;;;2.00;0.82;;;11.70;99.90;;;;;;5051611;28;20464;-68
2022/09/27 11:49:14;;;;;;;2.05;1.00;;;11.70;99.90;;;;;;5051817;28;20224;-69
2022/09/27 11:51:57;;;;;;;1.25;1.15;;;11.70;99.90;;;;;;5051089;28;20209;-68
2022/09/27 11:54:40;;;;;;;1.20;0.93;;;11.70;99.90;;;;;;5051340;28;20611;-68
2022/09/27 11:57:17;;;;;;;1.08;0.88;;;11.70;99.90;;;;;;5051882;28;20232;-68
2022/09/27 12:00:01;;;;;;;1.45;1.00;;;11.70;99.90;;;;;;5051330;28;20213;-68
2022/09/27 12:02:51;;;;;;;1.00;0.90;;;11.80;99.90;;;;;;5051013;28;20201;-69
2022/09/27 12:05:25;;;;;;;1.25;0.95;;;11.80;99.90;;;;;;5051062;28;20193;-68
2022/09/27 12:08:13;;;;;;;1.45;1.10;;;11.90;99.90;;;;;;5051178;28;20216;-68
2022/09/27 12:10:46;;;;;;;1.20;1.10;;;12.00;99.90;;;;;;5051017;28;20208;-69
2022/09/27 12:13:15;;;;;;;1.17;1.07;;;12.10;99.90;;;;;;5050625;28;20586;-68
2022/09/27 12:15:46;;;;;;;1.00;0.90;;;12.20;99.90;;;;;;5051017;28;20886;-69
2022/09/27 12:18:24;;;;;;;0.90;0.80;;;12.40;99.90;;;;;;5051072;28;20217;-69
2022/09/27 12:20:52;;;;;;;1.65;0.90;;;12.50;99.90;;;;;;5050878;28;20985;-70
2022/09/27 12:23:23;;;;;;;1.20;0.90;;;12.40;99.90;;;;;;5050439;28;20224;-70
2022/09/27 12:25:58;;;;;;;1.63;1.00;;;12.20;99.90;;;;;;5050866;28;20202;-69
2022/09/27 12:28:35;;;;;;;1.35;1.00;;;12.00;99.90;;;;;;5048453;28;20463;-69
2022/09/27 12:31:09;;;;;;;1.55;0.90;;;11.80;99.90;;;;;;5030681;28;20670;-69
2022/09/27 12:33:41;;;;;;;1.00;0.88;;;11.70;99.90;;;;;;5044419;28;20304;-70
2022/09/27 12:36:16;;;;;;;1.98;1.05;;;11.60;99.90;;;;;;5050733;28;20205;-70
2022/09/27 12:38:46;;;;;;;1.45;1.00;;;11.50;99.90;;;;;;5050827;28;20209;-69
2022/09/27 12:41:19;;;;;;;1.40;1.02;;;11.50;99.90;;;;;;5050147;28;20212;-69
2022/09/27 12:43:49;;;;;;;1.30;0.90;;;11.50;99.90;;;;;;5050462;28;20229;-69
2022/09/27 12:46:29;;;;;;;1.38;1.08;;;11.50;99.90;;;;;;5050531;28;20209;-69
2022/09/27 12:49:04;;;;;;;1.57;1.00;;;11.40;99.90;;;;;;5050545;28;20237;-69
2022/09/27 12:51:35;;;;;;;1.20;1.00;;;11.40;99.90;;;;;;5050044;28;20942;-69
2022/09/27 12:54:22;;;;;;;3.20;1.25;;;11.40;99.90;;;;;;5050518;28;20229;-69
2022/09/27 12:57:01;;;;;;;1.17;0.93;;;11.30;99.90;;;;;;5050275;28;20209;-69
2022/09/27 12:59:42;;;;;;;3.53;1.10;;;11.40;99.90;;;;;;5047147;28;20464;-69
2022/09/27 13:02:55;;;;;;;1.70;1.20;;;11.50;99.90;;;;;;5043967;28;20976;-69
2022/09/27 13:05:40;;;;;;;1.50;1.20;;;11.70;99.90;;;;;;5049424;28;20985;-69
2022/09/27 13:08:22;;;;;;;1.40;1.30;;;11.80;99.90;;;;;;5050265;28;20503;-69
2022/09/27 13:10:58;;;;;;;1.73;1.00;;;11.90;99.90;;;;;;5049773;28;20839;-69
2022/09/27 13:13:28;;;;;;;1.03;0.90;;;11.80;99.90;;;;;;5049537;28;20491;-69
2022/09/27 13:15:58;;;;;;;1.23;0.90;;;11.70;99.90;;;;;;5050450;28;20951;-69
2022/09/27 13:18:50;;;;;;;0.82;0.75;;;11.70;99.90;;;;;;5049965;28;20518;-69
2022/09/27 13:21:50;;;;;;;0.80;0.80;;;11.70;99.90;;;;;;5030842;28;20641;-69
2022/09/27 13:24:45;;;;;;;0.80;0.80;;;11.70;99.90;;;;;;5049950;28;20476;-69